sensor_id;sensor_type;location;lat;lon;timestamp;temperature;humidity
52211;DHT22;38179;52.756;6.906;2022-10-17T00:00:27;12.80;99.90
52211;DHT22;38179;52.756;6.906;2022-10-17T00:02:56;12.90;99.90
52211;DHT22;38179;52.756;6.906;2022-10-17T00:05:23;12.90;99.90
52211;DHT22;38179;52.756;6.906;2022-10-17T00:07:50;12.90;99.90
52211;DHT22;38179;52.756;6.906;2022-10-17T00:10:15;12.90;99.90
52211;DHT22;38179;52.756;6.906;2022-10-17T00:12:41;12.90;99.90
52211;DHT22;38179;52.756;6.906;2022-10-17T00:15:07;12.90;99.90
52211;DHT22;38179;52.756;6.906;2022-10-17T00:17:33;12.90;99.90
52211;DHT22;38179;52.756;6.906;2022-10-17T00:20:00;12.90;99.90
52211;DHT22;38179;52.756;6.906;2022-10-17T00:22:26;12.90;99.90
52211;DHT22;38179;52.756;6.906;2022-10-17T00:24:52;12.90;99.90
52211;DHT22;38179;52.756;6.906;2022-10-17T00:27:18;12.90;99.90
52211;DHT22;38179;52.756;6.906;2022-10-17T00:29:48;12.90;99.90
52211;DHT22;38179;52.756;6.906;2022-10-17T00:32:14;12.90;99.90
52211;DHT22;38179;52.756;6.906;2022-10-17T00:34:40;12.80;99.90
52211;DHT22;38179;52.756;6.906;2022-10-17T00:37:06;12.80;99.90
52211;DHT22;38179;52.756;6.906;2022-10-17T00:39:32;12.80;99.90
52211;DHT22;38179;52.756;6.906;2022-10-17T00:41:58;12.80;99.90
52211;DHT22;38179;52.756;6.906;2022-10-17T00:46:58;12.80;99.90
52211;DHT22;38179;52.756;6.906;2022-10-17T00:49:26;12.80;99.90
52211;DHT22;38179;52.756;6.906;2022-10-17T00:51:53;12.80;99.90
52211;DHT22;38179;52.756;6.906;2022-10-17T00:54:23;12.80;99.90
52211;DHT22;38179;52.756;6.906;2022-10-17T00:56:50;12.80;99.90
52211;DHT22;38179;52.756;6.906;2022-10-17T00:59:19;12.80;99.90
52211;DHT22;38179;52.756;6.906;2022-10-17T01:01:59;12.80;99.90
52211;DHT22;38179;52.756;6.906;2022-10-17T01:04:26;12.80;99.90
52211;DHT22;38179;52.756;6.906;2022-10-17T01:06:52;12.80;99.90
52211;DHT22;38179;52.756;6.906;2022-10-17T01:09:18;12.80;99.90
52211;DHT22;38179;52.756;6.906;2022-10-17T01:11:58;12.80;99.90
52211;DHT22;38179;52.756;6.906;2022-10-17T01:14:36;12.80;99.90
52211;DHT22;38179;52.756;6.906;2022-10-17T01:17:39;12.80;99.90
52211;DHT22;38179;52.756;6.906;2022-10-17T01:23:03;12.80;99.90
52211;DHT22;38179;52.756;6.906;2022-10-17T01:34:42;12.80;99.90
52211;DHT22;38179;52.756;6.906;2022-10-17T01:37:38;12.80;99.90
52211;DHT22;38179;52.756;6.906;2022-10-17T01:40:16;12.80;99.90
52211;DHT22;38179;52.756;6.906;2022-10-17T01:43:14;12.80;99.90
52211;DHT22;38179;52.756;6.906;2022-10-17T01:45:51;12.70;99.90
52211;DHT22;38179;52.756;6.906;2022-10-17T01:48:24;12.80;99.90
52211;DHT22;38179;52.756;6.906;2022-10-17T01:50:54;12.80;99.90
52211;DHT22;38179;52.756;6.906;2022-10-17T01:53:32;12.70;99.90
52211;DHT22;38179;52.756;6.906;2022-10-17T01:56:00;12.70;99.90
52211;DHT22;38179;52.756;6.906;2022-10-17T01:58:38;12.70;99.90
52211;DHT22;38179;52.756;6.906;2022-10-17T02:01:06;12.60;99.90
52211;DHT22;38179;52.756;6.906;2022-10-17T02:03:34;12.70;99.90
52211;DHT22;38179;52.756;6.906;2022-10-17T02:06:00;12.70;99.90
52211;DHT22;38179;52.756;6.906;2022-10-17T02:08:28;12.60;99.90
52211;DHT22;38179;52.756;6.906;2022-10-17T02:11:01;12.60;99.90
52211;DHT22;38179;52.756;6.906;2022-10-17T02:16:29;12.60;99.90
52211;DHT22;38179;52.756;6.906;2022-10-17T02:24:49;12.60;99.90
52211;DHT22;38179;52.756;6.906;2022-10-17T02:33:16;12.50;99.90
52211;DHT22;38179;52.756;6.906;2022-10-17T02:35:48;12.50;99.90
52211;DHT22;38179;52.756;6.906;2022-10-17T02:38:17;12.50;99.90
52211;DHT22;38179;52.756;6.906;2022-10-17T02:40:45;12.50;99.90
52211;DHT22;38179;52.756;6.906;2022-10-17T02:43:12;12.50;99.90
52211;DHT22;38179;52.756;6.906;2022-10-17T02:45:39;12.50;99.90
52211;DHT22;38179;52.756;6.906;2022-10-17T02:48:08;12.50;99.90
52211;DHT22;38179;52.756;6.906;2022-10-17T02:51:19;12.40;99.90
52211;DHT22;38179;52.756;6.906;2022-10-17T02:57:21;12.50;99.90
52211;DHT22;38179;52.756;6.906;2022-10-17T02:59:28;12.40;99.90
52211;DHT22;38179;52.756;6.906;2022-10-17T03:01:55;12.40;99.90
52211;DHT22;38179;52.756;6.906;2022-10-17T03:04:21;12.40;99.90
52211;DHT22;38179;52.756;6.906;2022-10-17T03:06:47;12.40;99.90
52211;DHT22;38179;52.756;6.906;2022-10-17T03:09:14;12.40;99.90
52211;DHT22;38179;52.756;6.906;2022-10-17T03:11:40;12.40;99.90
52211;DHT22;38179;52.756;6.906;2022-10-17T03:14:06;12.40;99.90
52211;DHT22;38179;52.756;6.906;2022-10-17T03:16:32;12.50;99.90
52211;DHT22;38179;52.756;6.906;2022-10-17T03:18:58;12.50;99.90
52211;DHT22;38179;52.756;6.906;2022-10-17T03:21:24;12.50;99.90
52211;DHT22;38179;52.756;6.906;2022-10-17T03:23:49;12.50;99.90
52211;DHT22;38179;52.756;6.906;2022-10-17T03:26:15;12.50;99.90
52211;DHT22;38179;52.756;6.906;2022-10-17T03:28:41;12.50;99.90
52211;DHT22;38179;52.756;6.906;2022-10-17T03:31:09;12.50;99.90
52211;DHT22;38179;52.756;6.906;2022-10-17T03:33:35;12.50;99.90
52211;DHT22;38179;52.756;6.906;2022-10-17T03:36:10;12.50;99.90
52211;DHT22;38179;52.756;6.906;2022-10-17T03:38:36;12.50;99.90
52211;DHT22;38179;52.756;6.906;2022-10-17T03:41:03;12.50;99.90
52211;DHT22;38179;52.756;6.906;2022-10-17T03:43:29;12.50;99.90
52211;DHT22;38179;52.756;6.906;2022-10-17T03:45:57;12.50;99.90
52211;DHT22;38179;52.756;6.906;2022-10-17T03:48:26;12.50;99.90
52211;DHT22;38179;52.756;6.906;2022-10-17T03:51:01;12.50;99.90
52211;DHT22;38179;52.756;6.906;2022-10-17T03:53:27;12.50;99.90
52211;DHT22;38179;52.756;6.906;2022-10-17T03:55:53;12.50;99.90
52211;DHT22;38179;52.756;6.906;2022-10-17T03:58:19;12.50;99.90
52211;DHT22;38179;52.756;6.906;2022-10-17T04:00:45;12.50;99.90
52211;DHT22;38179;52.756;6.906;2022-10-17T04:03:11;12.50;99.90
52211;DHT22;38179;52.756;6.906;2022-10-17T04:05:37;12.50;99.90
52211;DHT22;38179;52.756;6.906;2022-10-17T04:08:03;12.50;99.90
52211;DHT22;38179;52.756;6.906;2022-10-17T04:10:29;12.40;99.90
52211;DHT22;38179;52.756;6.906;2022-10-17T04:12:55;12.50;99.90
52211;DHT22;38179;52.756;6.906;2022-10-17T04:15:21;12.50;99.90
52211;DHT22;38179;52.756;6.906;2022-10-17T04:17:47;12.50;99.90
52211;DHT22;38179;52.756;6.906;2022-10-17T04:20:13;12.50;99.90
52211;DHT22;38179;52.756;6.906;2022-10-17T04:22:39;12.40;99.90
52211;DHT22;38179;52.756;6.906;2022-10-17T04:25:05;12.40;99.90
52211;DHT22;38179;52.756;6.906;2022-10-17T04:27:31;12.40;99.90
52211;DHT22;38179;52.756;6.906;2022-10-17T04:29:56;12.40;99.90
52211;DHT22;38179;52.756;6.906;2022-10-17T04:32:22;12.40;99.90
52211;DHT22;38179;52.756;6.906;2022-10-17T04:34:50;12.40;99.90
52211;DHT22;38179;52.756;6.906;2022-10-17T04:37:16;12.40;99.90
52211;DHT22;38179;52.756;6.906;2022-10-17T04:39:42;12.40;99.90
52211;DHT22;38179;52.756;6.906;2022-10-17T04:42:07;12.40;99.90
52211;DHT22;38179;52.756;6.906;2022-10-17T04:44:33;12.50;99.90
52211;DHT22;38179;52.756;6.906;2022-10-17T04:47:00;12.40;99.90
52211;DHT22;38179;52.756;6.906;2022-10-17T04:49:26;12.50;99.90
52211;DHT22;38179;52.756;6.906;2022-10-17T04:51:52;12.40;99.90
52211;DHT22;38179;52.756;6.906;2022-10-17T04:54:17;12.50;99.90
52211;DHT22;38179;52.756;6.906;2022-10-17T04:56:43;12.50;99.90
52211;DHT22;38179;52.756;6.906;2022-10-17T04:59:09;12.50;99.90
52211;DHT22;38179;52.756;6.906;2022-10-17T05:01:35;12.50;99.90
52211;DHT22;38179;52.756;6.906;2022-10-17T05:04:01;12.50;99.90
52211;DHT22;38179;52.756;6.906;2022-10-17T05:06:27;12.50;99.90
52211;DHT22;38179;52.756;6.906;2022-10-17T05:08:53;12.50;99.90
52211;DHT22;38179;52.756;6.906;2022-10-17T05:11:22;12.50;99.90
52211;DHT22;38179;52.756;6.906;2022-10-17T05:13:56;12.50;99.90
52211;DHT22;38179;52.756;6.906;2022-10-17T05:16:24;12.60;99.90
52211;DHT22;38179;52.756;6.906;2022-10-17T05:18:51;12.60;99.90
52211;DHT22;38179;52.756;6.906;2022-10-17T05:21:18;12.60;99.90
52211;DHT22;38179;52.756;6.906;2022-10-17T05:23:44;12.60;99.90
52211;DHT22;38179;52.756;6.906;2022-10-17T05:26:11;12.70;99.90
52211;DHT22;38179;52.756;6.906;2022-10-17T05:28:37;12.70;99.90
52211;DHT22;38179;52.756;6.906;2022-10-17T05:31:07;12.70;99.90
52211;DHT22;38179;52.756;6.906;2022-10-17T05:33:35;12.80;99.90
52211;DHT22;38179;52.756;6.906;2022-10-17T05:36:01;12.80;99.90
52211;DHT22;38179;52.756;6.906;2022-10-17T05:38:27;12.80;99.90
52211;DHT22;38179;52.756;6.906;2022-10-17T05:41:00;12.80;99.90
52211;DHT22;38179;52.756;6.906;2022-10-17T05:43:26;12.80;99.90
52211;DHT22;38179;52.756;6.906;2022-10-17T05:45:53;12.90;99.90
52211;DHT22;38179;52.756;6.906;2022-10-17T05:48:20;12.90;99.90
52211;DHT22;38179;52.756;6.906;2022-10-17T05:50:46;12.90;99.90
52211;DHT22;38179;52.756;6.906;2022-10-17T05:53:12;12.90;99.90
52211;DHT22;38179;52.756;6.906;2022-10-17T05:55:38;13.00;99.90
52211;DHT22;38179;52.756;6.906;2022-10-17T05:58:03;13.00;99.90
52211;DHT22;38179;52.756;6.906;2022-10-17T06:00:29;13.00;99.90
52211;DHT22;38179;52.756;6.906;2022-10-17T06:02:55;13.10;99.90
52211;DHT22;38179;52.756;6.906;2022-10-17T06:05:21;13.10;99.90
52211;DHT22;38179;52.756;6.906;2022-10-17T06:07:47;13.20;99.90
52211;DHT22;38179;52.756;6.906;2022-10-17T06:10:17;13.20;99.90
52211;DHT22;38179;52.756;6.906;2022-10-17T06:12:44;13.20;99.90
52211;DHT22;38179;52.756;6.906;2022-10-17T06:15:10;13.20;99.90
52211;DHT22;38179;52.756;6.906;2022-10-17T06:17:37;13.30;99.90
52211;DHT22;38179;52.756;6.906;2022-10-17T06:20:03;13.30;99.90
52211;DHT22;38179;52.756;6.906;2022-10-17T06:22:29;13.40;99.90
52211;DHT22;38179;52.756;6.906;2022-10-17T06:24:55;13.40;99.90
52211;DHT22;38179;52.756;6.906;2022-10-17T06:27:21;13.50;99.90
52211;DHT22;38179;52.756;6.906;2022-10-17T06:29:47;13.50;99.90
52211;DHT22;38179;52.756;6.906;2022-10-17T06:32:13;13.60;99.90
52211;DHT22;38179;52.756;6.906;2022-10-17T06:34:39;13.60;99.90
52211;DHT22;38179;52.756;6.906;2022-10-17T06:37:05;13.70;99.90
52211;DHT22;38179;52.756;6.906;2022-10-17T06:39:30;13.70;99.90
52211;DHT22;38179;52.756;6.906;2022-10-17T06:42:02;13.80;99.90
52211;DHT22;38179;52.756;6.906;2022-10-17T06:44:28;13.80;99.90
52211;DHT22;38179;52.756;6.906;2022-10-17T06:46:59;13.80;99.90
52211;DHT22;38179;52.756;6.906;2022-10-17T06:49:26;13.80;99.90
52211;DHT22;38179;52.756;6.906;2022-10-17T06:51:52;13.90;99.90
52211;DHT22;38179;52.756;6.906;2022-10-17T06:54:18;13.90;99.90
52211;DHT22;38179;52.756;6.906;2022-10-17T06:56:44;13.90;99.90
52211;DHT22;38179;52.756;6.906;2022-10-17T06:59:10;14.00;99.90
52211;DHT22;38179;52.756;6.906;2022-10-17T07:01:36;14.00;99.90
52211;DHT22;38179;52.756;6.906;2022-10-17T07:04:02;14.00;99.90
52211;DHT22;38179;52.756;6.906;2022-10-17T07:06:28;14.00;99.90
52211;DHT22;38179;52.756;6.906;2022-10-17T07:08:54;14.10;99.90
52211;DHT22;38179;52.756;6.906;2022-10-17T07:11:21;14.20;99.90
52211;DHT22;38179;52.756;6.906;2022-10-17T07:13:47;14.20;99.90
52211;DHT22;38179;52.756;6.906;2022-10-17T07:16:15;14.30;99.90
52211;DHT22;38179;52.756;6.906;2022-10-17T07:18:41;14.40;99.90
52211;DHT22;38179;52.756;6.906;2022-10-17T07:21:08;14.50;99.90
52211;DHT22;38179;52.756;6.906;2022-10-17T07:23:35;14.50;99.90
52211;DHT22;38179;52.756;6.906;2022-10-17T07:26:03;14.60;99.90
52211;DHT22;38179;52.756;6.906;2022-10-17T07:28:36;14.60;99.90
52211;DHT22;38179;52.756;6.906;2022-10-17T07:31:14;14.80;99.90
52211;DHT22;38179;52.756;6.906;2022-10-17T07:33:40;14.90;99.90
52211;DHT22;38179;52.756;6.906;2022-10-17T07:36:07;15.00;99.90
52211;DHT22;38179;52.756;6.906;2022-10-17T07:38:33;15.10;99.90
52211;DHT22;38179;52.756;6.906;2022-10-17T07:41:02;15.20;99.90
52211;DHT22;38179;52.756;6.906;2022-10-17T07:43:29;15.30;99.90
52211;DHT22;38179;52.756;6.906;2022-10-17T07:45:56;15.40;99.90
52211;DHT22;38179;52.756;6.906;2022-10-17T07:48:23;15.60;99.90
52211;DHT22;38179;52.756;6.906;2022-10-17T07:50:49;15.60;99.90
52211;DHT22;38179;52.756;6.906;2022-10-17T07:53:15;15.80;99.90
52211;DHT22;38179;52.756;6.906;2022-10-17T07:55:41;15.90;99.90
52211;DHT22;38179;52.756;6.906;2022-10-17T07:58:08;15.90;99.90
52211;DHT22;38179;52.756;6.906;2022-10-17T08:00:37;15.90;99.90
52211;DHT22;38179;52.756;6.906;2022-10-17T08:03:04;16.00;99.90
52211;DHT22;38179;52.756;6.906;2022-10-17T08:05:31;16.00;99.90
52211;DHT22;38179;52.756;6.906;2022-10-17T08:07:57;16.00;99.90
52211;DHT22;38179;52.756;6.906;2022-10-17T08:10:23;16.00;99.90
52211;DHT22;38179;52.756;6.906;2022-10-17T08:12:54;16.00;99.90
52211;DHT22;38179;52.756;6.906;2022-10-17T08:15:21;16.10;99.90
52211;DHT22;38179;52.756;6.906;2022-10-17T08:17:48;16.10;99.90
52211;DHT22;38179;52.756;6.906;2022-10-17T08:20:13;16.20;99.90
52211;DHT22;38179;52.756;6.906;2022-10-17T08:22:40;16.30;99.90
52211;DHT22;38179;52.756;6.906;2022-10-17T08:25:06;16.30;99.90
52211;DHT22;38179;52.756;6.906;2022-10-17T08:27:32;16.50;99.90
52211;DHT22;38179;52.756;6.906;2022-10-17T08:29:58;16.50;99.90
52211;DHT22;38179;52.756;6.906;2022-10-17T08:32:26;16.60;99.90
52211;DHT22;38179;52.756;6.906;2022-10-17T08:34:53;16.70;99.90
52211;DHT22;38179;52.756;6.906;2022-10-17T08:37:21;16.70;99.90
52211;DHT22;38179;52.756;6.906;2022-10-17T08:39:48;16.70;99.90
52211;DHT22;38179;52.756;6.906;2022-10-17T08:47:58;16.80;99.90
52211;DHT22;38179;52.756;6.906;2022-10-17T08:50:41;16.80;99.90
52211;DHT22;38179;52.756;6.906;2022-10-17T08:55:50;16.90;99.90
52211;DHT22;38179;52.756;6.906;2022-10-17T08:58:22;16.90;99.90
52211;DHT22;38179;52.756;6.906;2022-10-17T09:01:27;16.90;99.90
52211;DHT22;38179;52.756;6.906;2022-10-17T09:04:16;17.00;99.90
52211;DHT22;38179;52.756;6.906;2022-10-17T09:09:39;17.00;99.90
52211;DHT22;38179;52.756;6.906;2022-10-17T09:12:16;17.10;99.90
52211;DHT22;38179;52.756;6.906;2022-10-17T09:20:48;17.10;99.90
52211;DHT22;38179;52.756;6.906;2022-10-17T09:23:22;17.10;99.90
52211;DHT22;38179;52.756;6.906;2022-10-17T09:25:54;17.20;99.90
52211;DHT22;38179;52.756;6.906;2022-10-17T09:28:22;17.20;99.90
52211;DHT22;38179;52.756;6.906;2022-10-17T09:30:56;17.20;99.90
52211;DHT22;38179;52.756;6.906;2022-10-17T09:33:26;17.20;99.90
52211;DHT22;38179;52.756;6.906;2022-10-17T09:35:54;17.20;99.90
52211;DHT22;38179;52.756;6.906;2022-10-17T09:38:22;17.30;99.90
52211;DHT22;38179;52.756;6.906;2022-10-17T09:40:59;17.40;99.90
52211;DHT22;38179;52.756;6.906;2022-10-17T09:43:26;17.40;99.90
52211;DHT22;38179;52.756;6.906;2022-10-17T09:46:03;17.30;99.90
52211;DHT22;38179;52.756;6.906;2022-10-17T09:48:37;17.40;99.90
52211;DHT22;38179;52.756;6.906;2022-10-17T09:51:05;17.30;99.90
52211;DHT22;38179;52.756;6.906;2022-10-17T09:53:38;17.40;99.90
52211;DHT22;38179;52.756;6.906;2022-10-17T09:56:12;17.40;99.90
52211;DHT22;38179;52.756;6.906;2022-10-17T09:58:55;17.30;99.90
52211;DHT22;38179;52.756;6.906;2022-10-17T10:03:48;17.30;99.90
52211;DHT22;38179;52.756;6.906;2022-10-17T10:06:32;17.40;99.90
52211;DHT22;38179;52.756;6.906;2022-10-17T10:08:58;17.30;99.90
52211;DHT22;38179;52.756;6.906;2022-10-17T10:14:15;17.20;99.90
52211;DHT22;38179;52.756;6.906;2022-10-17T10:16:44;17.10;99.90
52211;DHT22;38179;52.756;6.906;2022-10-17T10:19:30;17.00;99.90
52211;DHT22;38179;52.756;6.906;2022-10-17T10:21:59;16.90;99.90
52211;DHT22;38179;52.756;6.906;2022-10-17T10:24:26;16.90;99.90
52211;DHT22;38179;52.756;6.906;2022-10-17T10:26:54;16.80;99.90
52211;DHT22;38179;52.756;6.906;2022-10-17T10:29:38;16.70;99.90
52211;DHT22;38179;52.756;6.906;2022-10-17T10:32:22;16.70;99.90
52211;DHT22;38179;52.756;6.906;2022-10-17T10:34:52;16.60;99.90
52211;DHT22;38179;52.756;6.906;2022-10-17T10:37:32;16.60;99.90
52211;DHT22;38179;52.756;6.906;2022-10-17T10:40:44;16.50;99.90
52211;DHT22;38179;52.756;6.906;2022-10-17T10:42:56;16.50;99.90
52211;DHT22;38179;52.756;6.906;2022-10-17T10:45:27;16.40;99.90
52211;DHT22;38179;52.756;6.906;2022-10-17T10:48:22;16.40;99.90
52211;DHT22;38179;52.756;6.906;2022-10-17T10:50:56;16.40;99.90
52211;DHT22;38179;52.756;6.906;2022-10-17T10:56:19;16.30;99.90
52211;DHT22;38179;52.756;6.906;2022-10-17T11:01:21;16.20;99.90
52211;DHT22;38179;52.756;6.906;2022-10-17T11:06:36;16.20;99.90
52211;DHT22;38179;52.756;6.906;2022-10-17T11:12:00;16.10;99.90
52211;DHT22;38179;52.756;6.906;2022-10-17T11:14:41;16.10;99.90
52211;DHT22;38179;52.756;6.906;2022-10-17T11:22:42;16.10;99.90
52211;DHT22;38179;52.756;6.906;2022-10-17T11:25:14;16.10;99.90
52211;DHT22;38179;52.756;6.906;2022-10-17T11:27:44;16.20;99.90
52211;DHT22;38179;52.756;6.906;2022-10-17T11:30:16;16.20;99.90
52211;DHT22;38179;52.756;6.906;2022-10-17T11:32:48;16.20;99.90
52211;DHT22;38179;52.756;6.906;2022-10-17T11:35:24;16.20;99.90
52211;DHT22;38179;52.756;6.906;2022-10-17T11:40:44;16.20;99.90
52211;DHT22;38179;52.756;6.906;2022-10-17T11:45:43;16.20;99.90
52211;DHT22;38179;52.756;6.906;2022-10-17T11:48:20;16.20;99.90
52211;DHT22;38179;52.756;6.906;2022-10-17T11:51:08;16.20;99.90
52211;DHT22;38179;52.756;6.906;2022-10-17T11:53:48;16.20;99.90
52211;DHT22;38179;52.756;6.906;2022-10-17T11:57:05;16.20;99.90
52211;DHT22;38179;52.756;6.906;2022-10-17T11:59:32;16.20;99.90
52211;DHT22;38179;52.756;6.906;2022-10-17T12:02:15;16.20;99.90
52211;DHT22;38179;52.756;6.906;2022-10-17T12:05:14;16.20;99.90
52211;DHT22;38179;52.756;6.906;2022-10-17T12:08:12;16.20;99.90
52211;DHT22;38179;52.756;6.906;2022-10-17T12:10:47;16.20;99.90
52211;DHT22;38179;52.756;6.906;2022-10-17T12:16:28;16.20;99.90
52211;DHT22;38179;52.756;6.906;2022-10-17T12:18:43;16.10;99.90
52211;DHT22;38179;52.756;6.906;2022-10-17T12:21:09;16.10;99.90
52211;DHT22;38179;52.756;6.906;2022-10-17T12:23:36;16.10;99.90
52211;DHT22;38179;52.756;6.906;2022-10-17T12:26:06;16.10;99.90
52211;DHT22;38179;52.756;6.906;2022-10-17T12:28:43;16.20;99.90
52211;DHT22;38179;52.756;6.906;2022-10-17T12:31:22;16.10;99.90
52211;DHT22;38179;52.756;6.906;2022-10-17T12:33:50;16.10;99.90
52211;DHT22;38179;52.756;6.906;2022-10-17T12:46:41;16.20;99.90
52211;DHT22;38179;52.756;6.906;2022-10-17T12:55:11;16.30;99.90
52211;DHT22;38179;52.756;6.906;2022-10-17T12:58:00;16.20;99.90
52211;DHT22;38179;52.756;6.906;2022-10-17T13:00:52;16.30;99.90
52211;DHT22;38179;52.756;6.906;2022-10-17T13:03:27;16.30;99.90
52211;DHT22;38179;52.756;6.906;2022-10-17T13:05:59;16.30;99.90
52211;DHT22;38179;52.756;6.906;2022-10-17T13:08:46;16.30;99.90
52211;DHT22;38179;52.756;6.906;2022-10-17T13:11:13;16.30;99.90
52211;DHT22;38179;52.756;6.906;2022-10-17T13:13:48;16.30;99.90
52211;DHT22;38179;52.756;6.906;2022-10-17T13:18:58;16.40;99.90
52211;DHT22;38179;52.756;6.906;2022-10-17T13:21:24;16.40;99.90
52211;DHT22;38179;52.756;6.906;2022-10-17T13:23:50;16.30;99.90
52211;DHT22;38179;52.756;6.906;2022-10-17T13:26:20;16.40;99.90
52211;DHT22;38179;52.756;6.906;2022-10-17T13:29:10;16.40;99.90
52211;DHT22;38179;52.756;6.906;2022-10-17T13:31:38;16.40;99.90
52211;DHT22;38179;52.756;6.906;2022-10-17T13:34:14;16.40;99.90
52211;DHT22;38179;52.756;6.906;2022-10-17T13:36:41;16.40;99.90
52211;DHT22;38179;52.756;6.906;2022-10-17T13:39:09;16.40;99.90
52211;DHT22;38179;52.756;6.906;2022-10-17T13:41:37;16.40;99.90
52211;DHT22;38179;52.756;6.906;2022-10-17T13:44:17;16.40;99.90
52211;DHT22;38179;52.756;6.906;2022-10-17T13:46:44;16.40;99.90
52211;DHT22;38179;52.756;6.906;2022-10-17T13:49:35;16.40;99.90
52211;DHT22;38179;52.756;6.906;2022-10-17T13:52:05;16.50;99.90
52211;DHT22;38179;52.756;6.906;2022-10-17T13:54:40;16.50;99.90
52211;DHT22;38179;52.756;6.906;2022-10-17T13:57:28;16.50;99.90
52211;DHT22;38179;52.756;6.906;2022-10-17T14:00:04;16.50;99.90
52211;DHT22;38179;52.756;6.906;2022-10-17T14:02:32;16.40;99.90
52211;DHT22;38179;52.756;6.906;2022-10-17T14:05:19;16.40;99.90
52211;DHT22;38179;52.756;6.906;2022-10-17T14:07:51;16.50;99.90
52211;DHT22;38179;52.756;6.906;2022-10-17T14:10:35;16.40;99.90
52211;DHT22;38179;52.756;6.906;2022-10-17T14:13:03;16.50;99.90
52211;DHT22;38179;52.756;6.906;2022-10-17T14:15:33;16.50;99.90
52211;DHT22;38179;52.756;6.906;2022-10-17T14:18:05;16.50;99.90
52211;DHT22;38179;52.756;6.906;2022-10-17T14:20:33;16.40;99.90
52211;DHT22;38179;52.756;6.906;2022-10-17T14:23:00;16.50;99.90
52211;DHT22;38179;52.756;6.906;2022-10-17T14:25:32;16.40;99.90
52211;DHT22;38179;52.756;6.906;2022-10-17T14:30:48;16.40;99.90
52211;DHT22;38179;52.756;6.906;2022-10-17T14:33:22;16.40;99.90
52211;DHT22;38179;52.756;6.906;2022-10-17T14:35:50;16.40;99.90
52211;DHT22;38179;52.756;6.906;2022-10-17T14:38:17;16.30;99.90
52211;DHT22;38179;52.756;6.906;2022-10-17T14:40:58;16.20;99.90
52211;DHT22;38179;52.756;6.906;2022-10-17T14:43:27;16.10;99.90
52211;DHT22;38179;52.756;6.906;2022-10-17T14:45:55;16.00;99.90
52211;DHT22;38179;52.756;6.906;2022-10-17T14:48:23;15.90;99.90
52211;DHT22;38179;52.756;6.906;2022-10-17T14:51:08;15.90;99.90
52211;DHT22;38179;52.756;6.906;2022-10-17T14:53:35;15.80;99.90
52211;DHT22;38179;52.756;6.906;2022-10-17T14:56:17;15.70;99.90
52211;DHT22;38179;52.756;6.906;2022-10-17T14:58:44;15.70;99.90
52211;DHT22;38179;52.756;6.906;2022-10-17T15:01:10;15.70;99.90
52211;DHT22;38179;52.756;6.906;2022-10-17T15:03:36;15.60;99.90
52211;DHT22;38179;52.756;6.906;2022-10-17T15:06:17;15.50;99.90
52211;DHT22;38179;52.756;6.906;2022-10-17T15:08:44;15.50;99.90
52211;DHT22;38179;52.756;6.906;2022-10-17T15:11:10;15.50;99.90
52211;DHT22;38179;52.756;6.906;2022-10-17T15:13:37;15.40;99.90
52211;DHT22;38179;52.756;6.906;2022-10-17T15:16:20;15.40;99.90
52211;DHT22;38179;52.756;6.906;2022-10-17T15:18:47;15.40;99.90
52211;DHT22;38179;52.756;6.906;2022-10-17T15:21:16;15.30;99.90
52211;DHT22;38179;52.756;6.906;2022-10-17T15:23:42;15.30;99.90
52211;DHT22;38179;52.756;6.906;2022-10-17T15:26:13;15.30;99.90
52211;DHT22;38179;52.756;6.906;2022-10-17T15:28:39;15.20;99.90
52211;DHT22;38179;52.756;6.906;2022-10-17T15:31:07;15.20;99.90
52211;DHT22;38179;52.756;6.906;2022-10-17T15:33:33;15.20;99.90
52211;DHT22;38179;52.756;6.906;2022-10-17T15:35:59;15.10;99.90
52211;DHT22;38179;52.756;6.906;2022-10-17T15:38:25;15.10;99.90
52211;DHT22;38179;52.756;6.906;2022-10-17T15:40:50;15.10;99.90
52211;DHT22;38179;52.756;6.906;2022-10-17T15:43:16;15.00;99.90
52211;DHT22;38179;52.756;6.906;2022-10-17T15:45:42;15.10;99.90
52211;DHT22;38179;52.756;6.906;2022-10-17T15:48:22;15.10;99.90
52211;DHT22;38179;52.756;6.906;2022-10-17T15:50:50;15.10;99.90
52211;DHT22;38179;52.756;6.906;2022-10-17T15:53:16;15.10;99.90
52211;DHT22;38179;52.756;6.906;2022-10-17T15:55:42;15.00;99.90
52211;DHT22;38179;52.756;6.906;2022-10-17T15:58:13;15.00;99.90
52211;DHT22;38179;52.756;6.906;2022-10-17T16:00:39;15.00;99.90
52211;DHT22;38179;52.756;6.906;2022-10-17T16:03:05;15.00;99.90
52211;DHT22;38179;52.756;6.906;2022-10-17T16:05:31;15.00;99.90
52211;DHT22;38179;52.756;6.906;2022-10-17T16:07:57;15.00;99.90
52211;DHT22;38179;52.756;6.906;2022-10-17T16:10:23;15.00;99.90
52211;DHT22;38179;52.756;6.906;2022-10-17T16:12:53;15.00;99.90
52211;DHT22;38179;52.756;6.906;2022-10-17T16:15:24;15.00;99.90
52211;DHT22;38179;52.756;6.906;2022-10-17T16:17:53;15.00;99.90
52211;DHT22;38179;52.756;6.906;2022-10-17T16:20:20;15.00;99.90
52211;DHT22;38179;52.756;6.906;2022-10-17T16:22:47;15.00;99.90
52211;DHT22;38179;52.756;6.906;2022-10-17T16:25:24;14.90;99.90
52211;DHT22;38179;52.756;6.906;2022-10-17T16:27:53;14.90;99.90
52211;DHT22;38179;52.756;6.906;2022-10-17T16:30:20;14.80;99.90
52211;DHT22;38179;52.756;6.906;2022-10-17T16:32:46;14.80;99.90
52211;DHT22;38179;52.756;6.906;2022-10-17T16:35:25;14.80;99.90
52211;DHT22;38179;52.756;6.906;2022-10-17T16:37:51;14.80;99.90
52211;DHT22;38179;52.756;6.906;2022-10-17T16:40:18;14.80;99.90
52211;DHT22;38179;52.756;6.906;2022-10-17T16:42:44;14.70;99.90
52211;DHT22;38179;52.756;6.906;2022-10-17T16:45:21;14.70;99.90
52211;DHT22;38179;52.756;6.906;2022-10-17T16:47:48;14.70;99.90
52211;DHT22;38179;52.756;6.906;2022-10-17T16:50:15;14.70;99.90
52211;DHT22;38179;52.756;6.906;2022-10-17T16:52:41;14.70;99.90
52211;DHT22;38179;52.756;6.906;2022-10-17T16:55:07;14.70;99.90
52211;DHT22;38179;52.756;6.906;2022-10-17T16:57:34;14.70;99.90
52211;DHT22;38179;52.756;6.906;2022-10-17T17:00:00;14.60;99.90
52211;DHT22;38179;52.756;6.906;2022-10-17T17:02:26;14.60;99.90
52211;DHT22;38179;52.756;6.906;2022-10-17T17:04:52;14.60;99.90
52211;DHT22;38179;52.756;6.906;2022-10-17T17:07:18;14.60;99.90
52211;DHT22;38179;52.756;6.906;2022-10-17T17:09:45;14.60;99.90
52211;DHT22;38179;52.756;6.906;2022-10-17T17:12:11;14.50;99.90
52211;DHT22;38179;52.756;6.906;2022-10-17T17:14:37;14.50;99.90
52211;DHT22;38179;52.756;6.906;2022-10-17T17:17:03;14.50;99.90
52211;DHT22;38179;52.756;6.906;2022-10-17T17:19:29;14.50;99.90
52211;DHT22;38179;52.756;6.906;2022-10-17T17:21:55;14.50;99.90
52211;DHT22;38179;52.756;6.906;2022-10-17T17:24:21;14.40;99.90
52211;DHT22;38179;52.756;6.906;2022-10-17T17:26:51;14.50;99.90
52211;DHT22;38179;52.756;6.906;2022-10-17T17:29:18;14.40;99.90